Time;durP1;ratioP1;P1;durP2;ratioP2;P2;SDS_P1;SDS_P2;PMS_P1;PMS_P2;Temp;Humidity;BMP_temperature;BMP_pressure;BME280_temperature;BME280_humidity;BME280_pressure;Samples;Min_cycle;Max_cycle;Signal;HPM_P1;HPM_P2
2023/05/26 00:02:21;;;;;;;;;;;;;;;11.57;100.00;-18339.47;4977910;28;19922;-83
2023/05/26 00:04:46;;;;;;;;;;;;;;;11.60;100.00;-18340.16;5001571;28;19922;-83
2023/05/26 00:07:12;;;;;;;;;;;;;;;11.51;100.00;-18337.84;4995129;28;19921;-84
2023/05/26 00:09:37;;;;;;;;;;;;;;;11.42;100.00;-18335.34;4997398;28;19925;-83
2023/05/26 00:12:02;;;;;;;;;;;;;;;11.44;100.00;-18335.91;4999222;28;19939;-84
2023/05/26 00:14:27;;;;;;;;;;;;;;;11.39;100.00;-18334.53;5001601;28;20476;-83
2023/05/26 00:16:53;;;;;;;;;;;;;;;11.49;100.00;-18337.28;4999022;28;19984;-85
2023/05/26 00:19:19;;;;;;;;;;;;;;;11.34;100.00;-18333.16;4995771;28;19984;-84
2023/05/26 00:21:44;;;;;;;;;;;;;;;11.34;100.00;-18333.16;4994397;28;19993;-84
2023/05/26 00:24:09;;;;;;;;;;;;;;;11.42;100.00;-18335.50;4996162;28;20388;-84
2023/05/26 00:26:35;;;;;;;;;;;;;;;11.46;100.00;-18336.47;4994491;28;20458;-83
2023/05/26 00:29:00;;;;;;;;;;;;;;;11.40;100.00;-18334.94;4993363;28;20391;-84
2023/05/26 00:31:25;;;;;;;;;;;;;;;11.28;100.00;-18331.78;4993705;28;20401;-83
2023/05/26 00:33:50;;;;;;;;;;;;;;;11.23;100.00;-18330.28;4996167;28;19921;-84
2023/05/26 00:36:16;;;;;;;;;;;;;;;11.09;100.00;-18326.44;4993252;28;19929;-83
2023/05/26 00:38:41;;;;;;;;;;;;;;;11.14;100.00;-18327.81;4993731;28;20040;-84
2023/05/26 00:41:07;;;;;;;;;;;;;;;11.02;100.00;-18324.66;4992756;28;20006;-84
2023/05/26 00:43:32;;;;;;;;;;;;;;;11.01;100.00;-18324.50;5000570;28;19925;-84
2023/05/26 00:45:57;;;;;;;;;;;;;;;10.96;100.00;-18323.13;4980581;28;19948;-82
2023/05/26 00:48:22;;;;;;;;;;;;;;;11.12;100.00;-18327.25;4996176;28;19934;-84
2023/05/26 00:50:48;;;;;;;;;;;;;;;10.89;100.00;-18321.22;4979699;28;19933;-83
2023/05/26 00:53:13;;;;;;;;;;;;;;;10.89;100.00;-18321.22;4996936;28;19929;-83
2023/05/26 00:55:39;;;;;;;;;;;;;;;10.78;100.00;-18318.31;5001535;28;20024;-84
2023/05/26 00:58:05;;;;;;;;;;;;;;;10.64;100.00;-18314.34;4977105;28;19922;-85
2023/05/26 01:00:31;;;;;;;;;;;;;;;10.65;100.00;-18314.63;4994515;28;19940;-84
2023/05/26 01:02:57;;;;;;;;;;;;;;;10.61;100.00;-18313.66;4993799;28;19961;-85
2023/05/26 01:05:22;;;;;;;;;;;;;;;10.52;100.00;-18311.31;4997586;28;20315;-84
2023/05/26 01:07:47;;;;;;;;;;;;;;;10.44;100.00;-18309.00;4993106;28;19922;-84
2023/05/26 01:10:13;;;;;;;;;;;;;;;10.43;100.00;-18308.72;4996967;28;19925;-83
2023/05/26 01:12:43;;;;;;;;;;;;;;;10.46;100.00;-18309.69;4981218;28;20021;-84
2023/05/26 01:15:12;;;;;;;;;;;;;;;10.53;100.00;-18311.47;4974860;28;20016;-84
2023/05/26 01:17:44;;;;;;;;;;;;;;;10.54;100.00;-18311.88;4994835;28;19928;-82
2023/05/26 01:20:25;;;;;;;;;;;;;;;10.43;100.00;-18308.84;4977078;28;19925;-84
2023/05/26 01:22:56;;;;;;;;;;;;;;;10.44;100.00;-18309.13;4994601;28;19940;-83
2023/05/26 01:25:21;;;;;;;;;;;;;;;10.52;100.00;-18311.19;5009813;28;19922;-84
2023/05/26 01:27:46;;;;;;;;;;;;;;;10.42;100.00;-18308.44;4983329;28;19925;-83
2023/05/26 01:30:12;;;;;;;;;;;;;;;10.57;100.00;-18312.69;4981961;28;19941;-83
2023/05/26 01:32:37;;;;;;;;;;;;;;;10.53;100.00;-18311.59;4998438;28;20016;-82
2023/05/26 01:35:03;;;;;;;;;;;;;;;10.41;100.00;-18308.16;4997413;28;19926;-84
2023/05/26 01:37:28;;;;;;;;;;;;;;;10.42;100.00;-18308.56;5000206;28;19994;-83
2023/05/26 01:39:53;;;;;;;;;;;;;;;10.53;100.00;-18311.47;4997749;28;20178;-84
2023/05/26 01:42:21;;;;;;;;;;;;;;;10.33;100.00;-18306.09;4998036;28;19926;-83
2023/05/26 01:44:54;;;;;;;;;;;;;;;10.25;100.00;-18303.91;4993502;28;19925;-84
2023/05/26 01:47:20;;;;;;;;;;;;;;;10.21;100.00;-18302.78;4980482;28;19933;-84
2023/05/26 01:49:46;;;;;;;;;;;;;;;10.10;100.00;-18299.91;4996360;28;19937;-84
2023/05/26 01:52:13;;;;;;;;;;;;;;;10.16;100.00;-18301.56;4996161;28;19921;-83
2023/05/26 01:54:49;;;;;;;;;;;;;;;10.19;100.00;-18302.38;4975881;28;19929;-81
2023/05/26 01:57:15;;;;;;;;;;;;;;;10.08;100.00;-18299.50;4982935;28;19974;-83
2023/05/26 01:59:41;;;;;;;;;;;;;;;10.05;100.00;-18298.69;5001226;28;20551;-84
2023/05/26 02:02:06;;;;;;;;;;;;;;;10.08;100.00;-18299.50;4996440;28;19922;-84
2023/05/26 02:04:31;;;;;;;;;;;;;;;10.17;100.00;-18301.97;5008522;28;19921;-83
2023/05/26 02:06:57;;;;;;;;;;;;;;;10.17;100.00;-18301.97;4978594;28;19922;-84
2023/05/26 02:09:22;;;;;;;;;;;;;;;10.06;100.00;-18298.94;4998536;28;19933;-84
2023/05/26 02:11:47;;;;;;;;;;;;;;;9.98;100.00;-18296.63;5000252;28;20585;-83
2023/05/26 02:14:13;;;;;;;;;;;;;;;10.04;100.00;-18298.41;4982607;28;19949;-84
2023/05/26 02:16:39;;;;;;;;;;;;;;;10.02;100.00;-18297.72;4992693;28;19930;-84
2023/05/26 02:19:04;;;;;;;;;;;;;;;9.96;100.00;-18296.19;4992933;28;19968;-83
2023/05/26 02:21:30;;;;;;;;;;;;;;;9.88;100.00;-18294.13;4993970;28;19922;-84
2023/05/26 02:23:56;;;;;;;;;;;;;;;10.04;100.00;-18298.41;4992455;28;19929;-83
2023/05/26 02:26:21;;;;;;;;;;;;;;;9.86;100.00;-18293.44;4999751;28;19929;-84
2023/05/26 02:28:47;;;;;;;;;;;;;;;9.96;100.00;-18296.06;4979496;28;19932;-85
2023/05/26 02:31:12;;;;;;;;;;;;;;;10.10;100.00;-18300.06;4992795;28;20020;-84
2023/05/26 02:33:41;;;;;;;;;;;;;;;9.98;100.00;-18296.75;4992342;28;20467;-83
2023/05/26 02:36:07;;;;;;;;;;;;;;;10.21;100.00;-18302.78;4996093;28;19936;-84
2023/05/26 02:38:32;;;;;;;;;;;;;;;10.16;100.00;-18301.69;4998889;28;19922;-84
2023/05/26 02:40:57;;;;;;;;;;;;;;;10.06;100.00;-18298.81;4997382;28;19933;-84
2023/05/26 02:43:23;;;;;;;;;;;;;;;10.03;100.00;-18298.00;5000098;28;19921;-83
2023/05/26 02:45:49;;;;;;;;;;;;;;;10.01;100.00;-18297.56;4994528;28;20024;-83
2023/05/26 02:48:14;;;;;;;;;;;;;;;9.94;100.00;-18295.78;5004906;28;19936;-84
2023/05/26 02:50:39;;;;;;;;;;;;;;;10.16;100.00;-18301.69;4995548;28;19930;-83
2023/05/26 02:53:04;;;;;;;;;;;;;;;10.05;100.00;-18298.69;4987332;28;19922;-84
2023/05/26 02:55:30;;;;;;;;;;;;;;;10.08;100.00;-18299.50;4989564;28;19928;-84
2023/05/26 02:57:56;;;;;;;;;;;;;;;10.08;100.00;-18299.38;4998561;28;19980;-84
2023/05/26 03:00:21;;;;;;;;;;;;;;;9.85;100.00;-18293.19;4993812;28;20004;-84
2023/05/26 03:02:46;;;;;;;;;;;;;;;9.96;100.00;-18296.06;5002061;28;20839;-84
2023/05/26 03:05:12;;;;;;;;;;;;;;;10.08;100.00;-18299.50;5000560;28;19976;-84
2023/05/26 03:07:38;;;;;;;;;;;;;;;10.05;100.00;-18298.69;4998777;28;19921;-84
2023/05/26 03:10:03;;;;;;;;;;;;;;;9.91;100.00;-18294.81;4997371;28;19980;-84
2023/05/26 03:12:28;;;;;;;;;;;;;;;9.78;100.00;-18291.38;4977268;28;19932;-84
2023/05/26 03:14:54;;;;;;;;;;;;;;;9.69;100.00;-18289.06;4983885;28;19979;-84
2023/05/26 03:17:19;;;;;;;;;;;;;;;9.86;100.00;-18293.59;4982552;28;19925;-83
2023/05/26 03:19:45;;;;;;;;;;;;;;;9.78;100.00;-18291.25;5002745;28;19930;-83
2023/05/26 03:22:11;;;;;;;;;;;;;;;9.79;100.00;-18291.53;5014052;28;19937;-83
2023/05/26 03:24:36;;;;;;;;;;;;;;;9.77;100.00;-18291.13;5002572;28;19929;-83
2023/05/26 03:27:01;;;;;;;;;;;;;;;9.79;100.00;-18291.53;5005505;28;19921;-83
2023/05/26 03:29:29;;;;;;;;;;;;;;;9.85;100.00;-18293.19;4993649;28;20312;-83
2023/05/26 03:31:54;;;;;;;;;;;;;;;9.73;100.00;-18289.88;5009476;28;20519;-84
2023/05/26 03:34:20;;;;;;;;;;;;;;;9.91;100.00;-18294.97;4999213;28;20012;-83
2023/05/26 03:36:46;;;;;;;;;;;;;;;9.69;100.00;-18289.06;5016703;28;19917;-83
2023/05/26 03:39:11;;;;;;;;;;;;;;;9.61;100.00;-18286.84;5010412;28;19968;-84
2023/05/26 03:41:36;;;;;;;;;;;;;;;9.53;100.00;-18284.66;4993410;28;19961;-82
2023/05/26 03:44:02;;;;;;;;;;;;;;;9.67;100.00;-18288.50;4992912;28;20355;-83
2023/05/26 03:46:27;;;;;;;;;;;;;;;9.60;100.00;-18286.44;5012998;28;19928;-83
2023/05/26 03:48:52;;;;;;;;;;;;;;;9.73;100.00;-18289.88;4992125;28;20450;-83
2023/05/26 03:51:17;;;;;;;;;;;;;;;9.97;100.00;-18296.47;5012396;28;19960;-84
2023/05/26 03:53:43;;;;;;;;;;;;;;;10.05;100.00;-18298.69;4976505;28;20000;-84
2023/05/26 03:56:08;;;;;;;;;;;;;;;10.11;100.00;-18300.31;4991180;28;19918;-84
2023/05/26 03:58:33;;;;;;;;;;;;;;;9.94;100.00;-18295.78;5009783;28;19917;-84
2023/05/26 04:00:59;;;;;;;;;;;;;;;9.79;100.00;-18291.53;5020266;28;19926;-84
2023/05/26 04:03:26;;;;;;;;;;;;;;;9.89;100.00;-18294.28;5024332;28;19918;-84
2023/05/26 04:05:51;;;;;;;;;;;;;;;9.92;100.00;-18295.09;5012057;28;19957;-84
2023/05/26 04:08:16;;;;;;;;;;;;;;;9.92;100.00;-18295.09;5005509;28;19937;-84
2023/05/26 04:10:41;;;;;;;;;;;;;;;10.03;100.00;-18298.00;4998861;28;19933;-84
2023/05/26 04:13:07;;;;;;;;;;;;;;;9.94;100.00;-18295.66;4993015;28;19921;-84
2023/05/26 04:15:32;;;;;;;;;;;;;;;9.99;100.00;-18296.88;4976986;28;19925;-83
2023/05/26 04:17:57;;;;;;;;;;;;;;;9.92;100.00;-18295.09;4996928;28;20011;-84
2023/05/26 04:20:22;;;;;;;;;;;;;;;9.94;100.00;-18295.66;5002106;28;19922;-83
2023/05/26 04:22:48;;;;;;;;;;;;;;;10.02;100.00;-18297.84;4987656;28;19918;-84
2023/05/26 04:25:13;;;;;;;;;;;;;;;9.96;100.00;-18296.06;5010028;28;19928;-84
2023/05/26 04:27:39;;;;;;;;;;;;;;;9.96;100.00;-18296.06;5010869;28;20070;-84
2023/05/26 04:30:04;;;;;;;;;;;;;;;9.98;100.00;-18296.75;5009971;28;19930;-84
2023/05/26 04:35:00;;;;;;;;;;;;;;;10.16;100.00;-18301.56;5004739;28;19934;-78
2023/05/26 04:37:26;;;;;;;;;;;;;;;10.17;100.00;-18301.97;5001951;28;19917;-78
2023/05/26 04:39:51;;;;;;;;;;;;;;;10.13;100.00;-18300.88;4986720;28;19918;-78
2023/05/26 04:42:18;;;;;;;;;;;;;;;10.15;100.00;-18301.41;5001956;28;19937;-78
2023/05/26 04:44:44;;;;;;;;;;;;;;;10.16;100.00;-18301.69;5010421;28;20016;-78
2023/05/26 04:47:09;;;;;;;;;;;;;;;10.29;100.00;-18305.00;5009822;28;19956;-77
2023/05/26 04:49:38;;;;;;;;;;;;;;;10.55;100.00;-18312.16;5010210;28;19982;-78
2023/05/26 04:52:03;;;;;;;;;;;;;;;10.55;100.00;-18312.16;4993210;28;20335;-79
2023/05/26 04:54:28;;;;;;;;;;;;;;;10.70;100.00;-18316.00;4993933;28;19924;-78
2023/05/26 04:56:54;;;;;;;;;;;;;;;10.63;100.00;-18314.22;5004042;28;19918;-78
2023/05/26 04:59:21;;;;;;;;;;;;;;;10.63;100.00;-18314.22;5003861;28;19932;-78
2023/05/26 05:01:47;;;;;;;;;;;;;;;10.71;100.00;-18316.28;4996999;28;19932;-78
2023/05/26 05:04:12;;;;;;;;;;;;;;;10.79;100.00;-18318.47;4984860;28;19925;-78
2023/05/26 05:06:37;;;;;;;;;;;;;;;10.77;100.00;-18317.91;5009168;28;20335;-77
2023/05/26 05:09:03;;;;;;;;;;;;;;;10.83;100.00;-18319.56;5007262;28;19992;-78
2023/05/26 05:11:28;;;;;;;;;;;;;;;10.96;100.00;-18323.00;5004631;28;19985;-77
2023/05/26 05:13:53;;;;;;;;;;;;;;;11.01;100.00;-18324.50;5007284;28;19930;-78
2023/05/26 05:16:18;;;;;;;;;;;;;;;11.11;100.00;-18326.97;5006551;28;20375;-78
2023/05/26 05:18:44;;;;;;;;;;;;;;;11.22;100.00;-18330.00;5004090;28;19980;-78
2023/05/26 05:21:09;;;;;;;;;;;;;;;11.13;100.00;-18327.53;5005431;28;19969;-78
2023/05/26 05:23:34;;;;;;;;;;;;;;;11.18;100.00;-18328.91;5004778;28;19957;-77
2023/05/26 05:26:00;;;;;;;;;;;;;;;11.34;100.00;-18333.31;5003020;28;19968;-77
2023/05/26 05:28:26;;;;;;;;;;;;;;;11.19;100.00;-18329.19;5003354;28;20012;-77
2023/05/26 05:30:51;;;;;;;;;;;;;;;11.30;100.00;-18332.19;5005725;28;19929;-78
2023/05/26 05:33:16;;;;;;;;;;;;;;;11.47;100.00;-18336.88;5002366;28;19921;-78
2023/05/26 05:35:41;;;;;;;;;;;;;;;11.53;100.00;-18338.50;4987355;28;19961;-78
2023/05/26 05:38:07;;;;;;;;;;;;;;;11.67;100.00;-18342.22;5003788;28;19921;-78
2023/05/26 05:40:32;;;;;;;;;;;;;;;11.86;100.00;-18347.16;5005531;28;19945;-78
2023/05/26 05:42:57;;;;;;;;;;;;;;;12.01;100.00;-18351.16;5002606;28;19922;-78
2023/05/26 05:45:23;;;;;;;;;;;;;;;12.02;100.00;-18351.41;4987244;28;20316;-78
2023/05/26 05:47:48;;;;;;;;;;;;;;;12.17;100.00;-18355.69;5005089;28;19921;-78
2023/05/26 05:50:13;;;;;;;;;;;;;;;12.05;100.00;-18352.38;4988073;28;19929;-78
2023/05/26 05:52:38;;;;;;;;;;;;;;;12.18;100.00;-18355.81;5002941;28;19929;-78
2023/05/26 05:55:04;;;;;;;;;;;;;;;12.26;100.00;-18358.00;4984759;28;20864;-78
2023/05/26 05:57:29;;;;;;;;;;;;;;;12.39;100.00;-18361.56;4984801;28;19922;-78
2023/05/26 05:59:54;;;;;;;;;;;;;;;12.40;100.00;-18361.84;5005448;28;19936;-78
2023/05/26 06:02:19;;;;;;;;;;;;;;;12.48;100.00;-18363.91;5004542;28;19928;-78
2023/05/26 06:04:45;;;;;;;;;;;;;;;12.57;100.00;-18366.22;5001434;28;19921;-78
2023/05/26 06:07:10;;;;;;;;;;;;;;;12.52;100.00;-18364.88;5002799;28;20551;-78
2023/05/26 06:09:35;;;;;;;;;;;;;;;12.41;100.00;-18362.00;5003772;28;19988;-78
2023/05/26 06:12:01;;;;;;;;;;;;;;;12.44;100.00;-18362.81;4990827;28;19921;-78
2023/05/26 06:14:27;;;;;;;;;;;;;;;12.39;100.00;-18361.44;5006426;28;20412;-78
2023/05/26 06:16:52;;;;;;;;;;;;;;;12.42;100.00;-18362.41;5006811;28;19984;-77
2023/05/26 06:19:17;;;;;;;;;;;;;;;12.58;100.00;-18366.66;4990218;28;20415;-78
2023/05/26 06:21:43;;;;;;;;;;;;;;;12.62;100.00;-18367.59;5008050;28;20389;-78
2023/05/26 06:24:08;;;;;;;;;;;;;;;12.51;100.00;-18364.72;5008619;28;20315;-78
2023/05/26 06:26:33;;;;;;;;;;;;;;;12.56;100.00;-18365.97;4988818;28;19968;-78
2023/05/26 06:28:58;;;;;;;;;;;;;;;12.74;100.00;-18370.91;5006886;28;20186;-78
2023/05/26 06:31:25;;;;;;;;;;;;;;;12.63;100.00;-18368.03;5008842;28;20000;-78
2023/05/26 06:33:50;;;;;;;;;;;;;;;12.76;100.00;-18371.44;5007140;28;19983;-78
2023/05/26 06:36:16;;;;;;;;;;;;;;;12.85;100.00;-18373.78;5008755;28;19921;-78
2023/05/26 06:38:41;;;;;;;;;;;;;;;13.13;100.00;-18381.19;5005934;28;21211;-78
2023/05/26 06:41:06;;;;;;;;;;;;;;;13.06;100.00;-18379.53;5007101;28;19921;-78
2023/05/26 06:43:32;;;;;;;;;;;;;;;13.10;100.00;-18380.63;5007163;28;20040;-78
2023/05/26 06:45:57;;;;;;;;;;;;;;;13.07;100.00;-18379.69;5004697;28;19929;-78
2023/05/26 06:48:22;;;;;;;;;;;;;;;12.97;100.00;-18376.94;5004363;28;19941;-78
2023/05/26 06:50:47;;;;;;;;;;;;;;;13.11;100.00;-18380.78;5006228;28;19948;-78
2023/05/26 06:53:12;;;;;;;;;;;;;;;13.30;100.00;-18385.97;5006732;28;19969;-78
2023/05/26 06:55:38;;;;;;;;;;;;;;;13.45;100.00;-18389.81;5007150;28;20408;-78
2023/05/26 06:58:03;;;;;;;;;;;;;;;13.47;100.00;-18390.38;5004212;28;19930;-78
2023/05/26 07:00:30;;;;;;;;;;;;;;;13.40;100.00;-18388.44;5006740;28;19921;-78
2023/05/26 07:02:55;;;;;;;;;;;;;;;13.29;100.00;-18385.72;5006502;28;19929;-78
2023/05/26 07:05:20;;;;;;;;;;;;;;;13.34;100.00;-18386.94;5007849;28;19960;-78
2023/05/26 07:07:45;;;;;;;;;;;;;;;13.12;100.00;-18380.91;5006093;28;19922;-78
2023/05/26 07:10:11;;;;;;;;;;;;;;;13.09;100.00;-18380.22;5005718;28;20396;-77
2023/05/26 07:12:36;;;;;;;;;;;;;;;13.24;100.00;-18384.34;5007430;28;19944;-78
2023/05/26 07:15:01;;;;;;;;;;;;;;;13.41;100.00;-18388.88;5006414;28;19921;-78
2023/05/26 07:17:27;;;;;;;;;;;;;;;13.41;100.00;-18388.88;5005221;28;19921;-78
2023/05/26 07:19:52;;;;;;;;;;;;;;;13.38;100.00;-18388.03;5006448;28;20060;-78
2023/05/26 07:22:17;;;;;;;;;;;;;;;13.42;100.00;-18389.00;5004596;28;20016;-78
2023/05/26 07:24:42;;;;;;;;;;;;;;;13.40;100.00;-18388.44;5006506;28;19929;-78
2023/05/26 07:27:08;;;;;;;;;;;;;;;13.45;100.00;-18389.81;5005114;28;19925;-78
2023/05/26 07:29:33;;;;;;;;;;;;;;;13.63;100.00;-18394.75;5006522;28;19934;-78
2023/05/26 07:31:58;;;;;;;;;;;;;;;13.64;100.00;-18395.03;5005465;28;20403;-78
2023/05/26 07:34:24;;;;;;;;;;;;;;;13.62;100.00;-18394.34;5006410;28;19921;-78
2023/05/26 07:36:49;;;;;;;;;;;;;;;13.73;100.00;-18397.34;5006285;28;20219;-78
2023/05/26 07:39:15;;;;;;;;;;;;;;;13.77;100.00;-18398.59;5005712;28;20024;-78
2023/05/26 07:41:40;;;;;;;;;;;;;;;13.81;100.00;-18399.41;4988797;28;19936;-78
2023/05/26 07:44:05;;;;;;;;;;;;;;;13.72;100.00;-18397.09;5006189;28;19949;-78
2023/05/26 07:46:30;;;;;;;;;;;;;;;13.90;100.00;-18401.88;5005920;28;19925;-78
2023/05/26 07:48:56;;;;;;;;;;;;;;;13.94;100.00;-18402.97;5007055;28;19960;-78
2023/05/26 07:51:21;;;;;;;;;;;;;;;13.89;100.00;-18401.59;4987544;28;19941;-79
2023/05/26 07:53:46;;;;;;;;;;;;;;;13.82;100.00;-18399.69;5005790;28;19953;-79
2023/05/26 07:56:11;;;;;;;;;;;;;;;14.07;100.00;-18406.41;4985539;28;20089;-79
2023/05/26 07:58:38;;;;;;;;;;;;;;;14.28;100.00;-18412.16;4988120;28;20011;-78
2023/05/26 08:01:06;;;;;;;;;;;;;;;14.43;100.00;-18416.13;5005180;28;19952;-79
2023/05/26 08:03:31;;;;;;;;;;;;;;;14.54;100.00;-18419.13;4986423;28;19965;-79
2023/05/26 08:05:57;;;;;;;;;;;;;;;14.77;100.00;-18425.16;5005678;28;19980;-78
2023/05/26 08:08:22;;;;;;;;;;;;;;;14.80;100.00;-18425.97;5005603;28;21294;-78
2023/05/26 08:10:47;;;;;;;;;;;;;;;14.89;100.00;-18428.56;4987680;28;20365;-78
2023/05/26 08:13:12;;;;;;;;;;;;;;;14.98;100.00;-18430.91;5001148;28;19921;-78
2023/05/26 08:15:38;;;;;;;;;;;;;;;14.95;99.33;-18429.94;4989841;28;19930;-79
2023/05/26 08:18:03;;;;;;;;;;;;;;;14.91;97.79;-18429.00;5000927;28;19934;-78
2023/05/26 08:20:28;;;;;;;;;;;;;;;14.76;100.00;-18424.88;5002184;28;19933;-78
2023/05/26 08:22:56;;;;;;;;;;;;;;;14.86;100.00;-18427.75;4988857;28;19980;-78
2023/05/26 08:25:21;;;;;;;;;;;;;;;15.17;100.00;-18435.84;5005262;28;19921;-79
2023/05/26 08:27:46;;;;;;;;;;;;;;;15.21;97.64;-18436.94;5005156;28;20279;-79
2023/05/26 08:30:11;;;;;;;;;;;;;;;15.36;94.01;-18441.03;5006222;28;20397;-78
2023/05/26 08:32:37;;;;;;;;;;;;;;;15.42;94.37;-18442.53;5003639;28;20393;-79
2023/05/26 08:35:02;;;;;;;;;;;;;;;15.67;94.68;-18449.22;5007156;28;20364;-79
2023/05/26 08:37:27;;;;;;;;;;;;;;;15.84;92.67;-18453.75;5005941;28;19949;-79
2023/05/26 08:39:52;;;;;;;;;;;;;;;15.92;89.17;-18456.06;5005338;28;20064;-79
2023/05/26 08:42:19;;;;;;;;;;;;;;;15.82;89.46;-18453.34;5005592;28;19937;-78
2023/05/26 08:44:44;;;;;;;;;;;;;;;15.78;93.04;-18452.38;5004825;28;20684;-79
2023/05/26 08:47:11;;;;;;;;;;;;;;;15.81;90.83;-18453.06;5006579;28;19928;-79
2023/05/26 08:49:40;;;;;;;;;;;;;;;15.76;90.19;-18451.69;5005246;28;19933;-79
2023/05/26 08:52:08;;;;;;;;;;;;;;;15.92;89.26;-18456.06;5001136;28;20008;-79
2023/05/26 08:54:34;;;;;;;;;;;;;;;15.98;87.75;-18457.72;4988016;28;20420;-79
2023/05/26 08:57:01;;;;;;;;;;;;;;;16.03;86.36;-18458.94;4983514;28;20012;-79
2023/05/26 08:59:28;;;;;;;;;;;;;;;15.97;84.33;-18457.44;4984818;28;19995;-78
2023/05/26 09:01:53;;;;;;;;;;;;;;;16.10;89.61;-18460.72;4985228;28;19928;-79
2023/05/26 09:04:18;;;;;;;;;;;;;;;16.29;89.66;-18465.91;4986579;28;19922;-78
2023/05/26 09:06:45;;;;;;;;;;;;;;;16.36;83.85;-18467.69;4982534;28;20021;-79
2023/05/26 09:09:11;;;;;;;;;;;;;;;16.58;88.32;-18473.56;4983813;28;19922;-79
2023/05/26 09:11:40;;;;;;;;;;;;;;;16.68;79.09;-18476.44;4985901;28;19928;-78
2023/05/26 09:14:05;;;;;;;;;;;;;;;16.74;76.13;-18477.94;4984354;28;19925;-79
2023/05/26 09:16:30;;;;;;;;;;;;;;;16.61;76.01;-18474.38;4984956;28;19922;-79
2023/05/26 09:19:00;;;;;;;;;;;;;;;16.60;76.84;-18474.13;4985193;28;19929;-79
2023/05/26 09:21:26;;;;;;;;;;;;;;;16.44;83.47;-18470.00;4984552;28;20034;-79
2023/05/26 09:23:55;;;;;;;;;;;;;;;16.62;76.24;-18474.78;4986051;28;19929;-79
2023/05/26 09:26:26;;;;;;;;;;;;;;;16.21;79.77;-18463.72;4980841;28;19921;-79
2023/05/26 09:28:52;;;;;;;;;;;;;;;16.46;78.48;-18470.44;4997942;28;19922;-79
2023/05/26 09:31:17;;;;;;;;;;;;;;;16.54;79.93;-18472.47;4985480;28;19930;-78
2023/05/26 09:33:46;;;;;;;;;;;;;;;16.67;76.75;-18476.03;4985351;28;19929;-79
2023/05/26 09:36:11;;;;;;;;;;;;;;;16.47;73.13;-18470.84;4985641;28;20004;-79
2023/05/26 09:38:37;;;;;;;;;;;;;;;16.84;80.01;-18480.69;4983159;28;20421;-79
2023/05/26 09:41:02;;;;;;;;;;;;;;;16.86;74.44;-18481.22;5001082;28;19922;-79
2023/05/26 09:43:27;;;;;;;;;;;;;;;16.71;73.06;-18477.13;4985377;28;19929;-79
2023/05/26 09:45:53;;;;;;;;;;;;;;;16.67;73.85;-18476.03;4989829;28;20374;-79
2023/05/26 09:48:18;;;;;;;;;;;;;;;16.87;77.20;-18481.34;4988849;28;20298;-79
2023/05/26 09:50:43;;;;;;;;;;;;;;;16.91;72.43;-18482.59;4988508;28;19976;-79
2023/05/26 09:53:09;;;;;;;;;;;;;;;17.06;77.00;-18486.56;4988167;28;19972;-79
2023/05/26 09:55:36;;;;;;;;;;;;;;;17.19;75.92;-18489.97;4989442;28;19930;-79
2023/05/26 09:58:05;;;;;;;;;;;;;;;17.43;75.93;-18496.38;4988695;28;19976;-79
2023/05/26 10:00:32;;;;;;;;;;;;;;;17.32;66.85;-18493.38;4990071;28;20545;-79
2023/05/26 10:02:57;;;;;;;;;;;;;;;17.28;64.28;-18492.41;4988196;28;19922;-79
2023/05/26 10:05:23;;;;;;;;;;;;;;;17.28;68.31;-18492.41;4986606;28;20392;-79
2023/05/26 10:07:49;;;;;;;;;;;;;;;17.46;68.88;-18497.06;4990279;28;19929;-79
2023/05/26 10:10:15;;;;;;;;;;;;;;;17.53;66.19;-18498.97;5007007;28;19932;-79
2023/05/26 10:12:41;;;;;;;;;;;;;;;17.92;72.38;-18509.34;5008082;28;19922;-79
2023/05/26 10:15:07;;;;;;;;;;;;;;;17.92;61.76;-18509.34;5008268;28;19921;-80
2023/05/26 10:17:32;;;;;;;;;;;;;;;17.56;65.87;-18499.78;5007310;28;19921;-79
2023/05/26 10:19:58;;;;;;;;;;;;;;;17.81;64.71;-18506.63;5006451;28;20412;-79
2023/05/26 10:22:33;;;;;;;;;;;;;;;18.08;66.39;-18513.56;5010840;28;20351;-79
2023/05/26 10:25:06;;;;;;;;;;;;;;;18.18;59.17;-18516.31;5011405;28;19925;-80
2023/05/26 10:27:53;;;;;;;;;;;;;;;18.22;58.20;-18517.53;5011362;28;19925;-80
2023/05/26 10:30:19;;;;;;;;;;;;;;;18.19;62.04;-18516.72;5008462;28;19933;-79
2023/05/26 10:32:46;;;;;;;;;;;;;;;18.49;63.13;-18524.63;5007814;28;19929;-79
2023/05/26 10:35:27;;;;;;;;;;;;;;;18.91;60.09;-18535.81;5009159;28;19929;-80
2023/05/26 10:37:57;;;;;;;;;;;;;;;18.53;53.71;-18525.72;5008810;28;20287;-80
2023/05/26 10:40:29;;;;;;;;;;;;;;;18.29;54.63;-18519.16;5009423;28;20025;-80
2023/05/26 10:43:13;;;;;;;;;;;;;;;18.33;54.61;-18520.25;5011027;28;19968;-81
2023/05/26 10:45:46;;;;;;;;;;;;;;;18.22;54.76;-18517.41;4980259;28;19929;-80
2023/05/26 10:48:12;;;;;;;;;;;;;;;18.56;53.10;-18526.38;5005705;28;19925;-80
2023/05/26 10:50:55;;;;;;;;;;;;;;;18.12;54.95;-18514.66;5009339;28;19933;-80
2023/05/26 10:53:21;;;;;;;;;;;;;;;18.36;55.22;-18521.06;4983698;28;19950;-80
2023/05/26 10:55:58;;;;;;;;;;;;;;;18.57;51.28;-18526.81;4987743;28;19997;-80
2023/05/26 10:58:26;;;;;;;;;;;;;;;18.48;53.55;-18524.47;4987430;28;19929;-80
2023/05/26 11:00:57;;;;;;;;;;;;;;;18.77;53.76;-18532.00;4978577;28;19922;-80
2023/05/26 11:03:36;;;;;;;;;;;;;;;18.85;51.77;-18534.16;4989337;28;19922;-80
2023/05/26 11:06:02;;;;;;;;;;;;;;;18.98;51.72;-18537.72;4988825;28;22871;-80
2023/05/26 11:08:32;;;;;;;;;;;;;;;19.21;49.23;-18543.72;4987502;28;20401;-80
2023/05/26 11:10:58;;;;;;;;;;;;;;;19.47;50.38;-18550.78;4989489;28;20009;-80
2023/05/26 11:13:46;;;;;;;;;;;;;;;19.70;50.00;-18556.78;4990535;28;20009;-80
2023/05/26 11:16:14;;;;;;;;;;;;;;;19.77;49.67;-18558.84;4972333;28;20293;-80
2023/05/26 11:18:45;;;;;;;;;;;;;;;19.76;48.67;-18558.41;5001189;28;19926;-80
2023/05/26 11:21:12;;;;;;;;;;;;;;;19.80;49.37;-18559.66;4985277;28;19925;-80
2023/05/26 11:23:37;;;;;;;;;;;;;;;19.74;50.41;-18558.00;4988479;28;19925;-80
2023/05/26 11:26:09;;;;;;;;;;;;;;;19.86;50.59;-18561.16;4991446;28;20700;-80
2023/05/26 11:28:34;;;;;;;;;;;;;;;19.95;46.29;-18563.59;5011080;28;19925;-80
2023/05/26 11:31:08;;;;;;;;;;;;;;;19.89;48.52;-18561.81;4981802;28;20269;-80
2023/05/26 11:33:33;;;;;;;;;;;;;;;19.92;48.73;-18562.78;4980382;28;19921;-80
2023/05/26 11:36:04;;;;;;;;;;;;;;;20.37;48.78;-18574.63;4992076;28;20395;-80
2023/05/26 11:38:30;;;;;;;;;;;;;;;20.70;49.27;-18583.59;5006582;28;19917;-80
2023/05/26 11:40:55;;;;;;;;;;;;;;;20.54;48.32;-18579.25;5010578;28;19924;-80
2023/05/26 11:43:23;;;;;;;;;;;;;;;20.61;47.01;-18581.03;5009691;28;20412;-80
2023/05/26 11:45:52;;;;;;;;;;;;;;;20.57;45.42;-18579.94;4992414;28;19932;-80
2023/05/26 11:48:17;;;;;;;;;;;;;;;20.27;42.66;-18572.03;5010525;28;19924;-80
2023/05/26 11:50:42;;;;;;;;;;;;;;;20.19;46.30;-18569.84;5010223;28;19921;-80
2023/05/26 11:53:08;;;;;;;;;;;;;;;20.55;46.11;-18579.53;5010668;28;19922;-80
2023/05/26 11:55:33;;;;;;;;;;;;;;;20.54;44.10;-18579.13;5011415;28;19928;-80
2023/05/26 11:57:58;;;;;;;;;;;;;;;20.74;44.71;-18584.56;5006565;28;19921;-80
2023/05/26 12:00:24;;;;;;;;;;;;;;;20.94;42.10;-18589.88;4996190;28;19922;-80
2023/05/26 12:02:49;;;;;;;;;;;;;;;20.77;43.61;-18585.25;5003871;28;19918;-80
2023/05/26 12:05:26;;;;;;;;;;;;;;;20.56;43.28;-18579.78;5010483;28;19953;-80
2023/05/26 12:08:01;;;;;;;;;;;;;;;20.85;42.88;-18587.41;5011404;28;19921;-80
2023/05/26 12:10:32;;;;;;;;;;;;;;;20.68;43.05;-18582.94;5009408;28;19921;-80
2023/05/26 12:12:58;;;;;;;;;;;;;;;20.92;41.71;-18589.47;5010700;28;19940;-80
2023/05/26 12:15:25;;;;;;;;;;;;;;;21.30;43.16;-18599.38;5001868;28;21669;-80
2023/05/26 12:17:51;;;;;;;;;;;;;;;21.09;42.57;-18593.94;5009300;28;19917;-80
2023/05/26 12:20:17;;;;;;;;;;;;;;;21.29;41.63;-18599.09;5009459;28;19917;-80
2023/05/26 12:22:42;;;;;;;;;;;;;;;21.12;42.44;-18594.63;4982920;28;19968;-79
2023/05/26 12:25:08;;;;;;;;;;;;;;;20.93;42.08;-18589.59;5006997;28;19921;-80
2023/05/26 12:27:35;;;;;;;;;;;;;;;21.11;41.71;-18594.47;5002877;28;19947;-80
2023/05/26 12:30:00;;;;;;;;;;;;;;;21.22;42.28;-18597.34;5001710;28;19977;-80